Time;durP1;ratioP1;P1;durP2;ratioP2;P2;SDS_P1;SDS_P2;PMS_P1;PMS_P2;Temp;Humidity;BMP_temperature;BMP_pressure;BME280_temperature;BME280_humidity;BME280_pressure;Samples;Min_cycle;Max_cycle;Signal;HPM_P1;HPM_P2
2022/12/09 00:00:00;;;;;;;65.03;24.52;;;;;;;7.96;100.00;100139.31;5088988;28;20063;-29
2022/12/09 00:02:27;;;;;;;59.55;24.05;;;;;;;8.10;100.00;100146.28;5089495;28;20032;-29
2022/12/09 00:04:52;;;;;;;61.25;24.63;;;;;;;8.09;100.00;100143.81;5089391;28;20028;-31
2022/12/09 00:07:18;;;;;;;57.78;25.70;;;;;;;8.08;100.00;100155.47;5089154;28;20077;-29
2022/12/09 00:09:43;;;;;;;54.47;23.02;;;;;;;8.21;100.00;100174.94;5070546;28;20028;-29
2022/12/09 00:12:09;;;;;;;60.22;25.20;;;;;;;7.91;100.00;100165.66;5089137;28;20031;-32
2022/12/09 00:14:34;;;;;;;57.10;24.45;;;;;;;8.05;100.00;100180.63;5070589;28;20035;-33
2022/12/09 00:16:59;;;;;;;59.22;24.17;;;;;;;8.18;100.00;100180.63;5088604;28;20056;-30
2022/12/09 00:19:25;;;;;;;56.42;22.00;;;;;;;8.20;100.00;100177.78;5089590;28;20030;-31
2022/12/09 00:21:50;;;;;;;61.47;24.80;;;;;;;8.02;100.00;100165.88;5070542;28;20028;-28
2022/12/09 00:24:16;;;;;;;65.78;23.35;;;;;;;8.17;100.00;100171.03;5089031;28;20404;-29
2022/12/09 00:26:41;;;;;;;56.47;23.83;;;;;;;8.20;100.00;100161.84;5089050;28;20024;-33
2022/12/09 00:29:06;;;;;;;57.55;22.77;;;;;;;8.22;100.00;100144.69;5088246;28;20038;-29
2022/12/09 00:31:35;;;;;;;61.38;23.92;;;;;;;8.34;100.00;100152.06;5089091;28;20023;-29
2022/12/09 00:34:02;;;;;;;;;;;;;;;8.12;100.00;100151.41;5089078;28;20055;-30
2022/12/09 00:36:28;;;;;;;60.15;22.75;;;;;;;8.28;100.00;100153.69;5089088;28;19908;-29
2022/12/09 00:38:55;;;;;;;59.53;23.38;;;;;;;8.24;100.00;100157.78;5070229;28;20078;-30
2022/12/09 00:41:21;;;;;;;60.38;22.77;;;;;;;8.13;100.00;100145.06;5070379;28;20029;-29
2022/12/09 00:43:47;;;;;;;69.18;24.25;;;;;;;8.15;100.00;100174.91;5069934;28;20027;-29
2022/12/09 00:46:13;;;;;;;55.30;22.95;;;;;;;8.22;100.00;100157.97;5070096;28;20057;-28
2022/12/09 00:48:40;;;;;;;53.33;21.25;;;;;;;8.33;100.00;100169.03;5069660;28;20054;-31
2022/12/09 00:51:07;;;;;;;60.13;22.30;;;;;;;8.27;100.00;100151.22;5088020;28;20032;-32
2022/12/09 00:53:33;;;;;;;62.07;23.80;;;;;;;8.27;100.00;100159.19;5070134;28;20036;-32
2022/12/09 00:55:59;;;;;;;49.83;21.58;;;;;;;8.46;100.00;100177.06;5069603;28;20293;-30
2022/12/09 00:58:25;;;;;;;52.72;20.30;;;;;;;8.41;100.00;100175.00;5088189;28;20459;-30
2022/12/09 01:00:52;;;;;;;53.72;21.73;;;;;;;8.38;100.00;100164.75;5088784;28;20676;-33
2022/12/09 01:03:18;;;;;;;62.35;24.20;;;;;;;8.39;100.00;100161.06;5069838;28;20028;-29
2022/12/09 01:05:44;;;;;;;51.72;22.05;;;;;;;8.30;100.00;100162.28;5069612;28;20111;-30
2022/12/09 01:08:10;;;;;;;55.58;21.80;;;;;;;8.15;100.00;100153.66;5069933;28;20147;-29
2022/12/09 01:10:38;;;;;;;54.97;22.08;;;;;;;8.07;100.00;100145.84;5069854;28;20102;-33
2022/12/09 01:13:03;;;;;;;54.50;21.00;;;;;;;8.16;100.00;100142.03;5069674;28;20495;-28
2022/12/09 01:15:29;;;;;;;54.20;21.20;;;;;;;8.06;100.00;100158.34;5088166;28;20090;-29
2022/12/09 01:17:54;;;;;;;51.42;20.77;;;;;;;8.18;100.00;100159.38;5087743;28;20454;-30
2022/12/09 01:20:20;;;;;;;59.05;23.40;;;;;;;7.95;100.00;100153.63;5088084;28;20109;-28
2022/12/09 01:22:45;;;;;;;49.55;20.23;;;;;;;7.75;100.00;100164.16;5088022;28;20039;-31
2022/12/09 01:25:11;;;;;;;47.13;18.70;;;;;;;7.94;100.00;100168.69;5088056;28;20071;-29
2022/12/09 01:27:37;;;;;;;50.97;19.85;;;;;;;8.04;100.00;100168.34;5087683;28;20088;-29
2022/12/09 01:30:04;;;;;;;44.05;18.38;;;;;;;8.14;100.00;100168.78;5069635;28;20020;-31
2022/12/09 01:32:30;;;;;;;51.08;19.63;;;;;;;8.02;100.00;100160.56;5087481;28;20532;-29
2022/12/09 01:34:55;;;;;;;53.05;18.85;;;;;;;8.03;100.00;100166.72;5087006;28;20103;-31
2022/12/09 01:37:20;;;;;;;54.38;19.83;;;;;;;7.97;100.00;100155.03;5087697;28;20032;-28
2022/12/09 01:39:46;;;;;;;46.10;18.15;;;;;;;8.05;100.00;100175.31;5087340;28;20039;-29
2022/12/09 01:42:21;;;;;;;49.03;18.25;;;;;;;7.75;100.00;100153.53;5087386;28;20031;-29
2022/12/09 01:45:20;;;;;;;48.00;19.10;;;;;;;7.95;100.00;100180.97;5088026;28;20027;-29
2022/12/09 01:47:50;;;;;;;48.13;19.23;;;;;;;7.94;100.00;100171.34;5087190;28;20028;-29
2022/12/09 01:50:17;;;;;;;45.72;19.50;;;;;;;7.90;100.00;100153.38;5087492;28;20039;-30
2022/12/09 01:52:44;;;;;;;52.15;19.55;;;;;;;8.22;100.00;100150.00;5087170;28;20036;-28
2022/12/09 01:55:10;;;;;;;49.90;18.00;;;;;;;8.23;100.00;100156.97;5069150;28;20028;-30
2022/12/09 01:57:36;;;;;;;46.00;17.70;;;;;;;8.15;100.00;100146.53;5087243;28;20694;-28
2022/12/09 02:00:02;;;;;;;53.72;19.50;;;;;;;8.09;100.00;100143.81;5087302;28;20042;-32
2022/12/09 02:02:29;;;;;;;45.67;17.95;;;;;;;7.97;100.00;100128.50;5068942;28;20032;-29
2022/12/09 02:04:55;;;;;;;50.22;18.70;;;;;;;8.16;100.00;100155.31;5087043;28;20028;-31
2022/12/09 02:07:20;;;;;;;51.47;19.60;;;;;;;8.25;100.00;100154.06;5087342;28;20024;-30
2022/12/09 02:09:51;;;;;;;49.40;19.85;;;;;;;8.44;100.00;100149.88;5087141;28;20028;-28
2022/12/09 02:12:36;;;;;;;47.05;19.08;;;;;;;8.31;100.00;100147.97;5087202;28;20028;-29
2022/12/09 02:15:15;;;;;;;43.15;17.00;;;;;;;8.32;100.00;100144.28;5068726;28;20035;-30
2022/12/09 02:17:49;;;;;;;41.17;17.20;;;;;;;8.13;100.00;100145.06;5087077;28;20048;-30
2022/12/09 02:20:46;;;;;;;44.65;16.98;;;;;;;8.32;100.00;100154.94;5087048;28;20099;-29
2022/12/09 02:23:18;;;;;;;43.43;16.67;;;;;;;8.30;100.00;100156.97;5086771;28;20043;-29
2022/12/09 02:25:46;;;;;;;40.85;17.88;;;;;;;8.46;100.00;100155.81;5086736;28;20258;-32
2022/12/09 02:28:29;;;;;;;37.40;15.55;;;;;;;8.48;100.00;100161.72;5068917;28;20028;-29
2022/12/09 02:31:16;;;;;;;44.13;16.50;;;;;;;8.42;100.00;100158.03;5068994;28;20035;-29
2022/12/09 02:34:00;;;;;;;48.70;18.38;;;;;;;8.41;100.00;100142.28;5086780;28;20032;-32
2022/12/09 02:36:31;;;;;;;38.13;16.90;;;;;;;8.38;100.00;100140.81;5086940;28;20036;-30
2022/12/09 02:38:58;;;;;;;46.45;18.55;;;;;;;8.45;100.00;100146.97;5068675;28;20028;-29
2022/12/09 02:41:27;;;;;;;42.67;17.02;;;;;;;8.51;100.00;100157.84;5068475;28;20097;-34
2022/12/09 02:44:05;;;;;;;43.13;17.10;;;;;;;8.52;100.00;100162.13;5068284;28;20032;-29
2022/12/09 02:46:32;;;;;;;;;;;;;;;8.57;100.00;100173.78;5090738;28;20665;-31
2022/12/09 02:48:58;;;;;;;39.35;16.45;;;;;;;8.44;100.00;100152.53;5072960;28;19916;-28
2022/12/09 02:51:28;;;;;;;50.83;19.00;;;;;;;8.44;100.00;100140.06;5072908;28;20040;-30
2022/12/09 02:53:58;;;;;;;44.05;17.80;;;;;;;8.47;100.00;100133.50;5072527;28;20074;-29
2022/12/09 02:56:25;;;;;;;41.67;17.02;;;;;;;8.53;100.00;100145.97;5072627;28;20032;-30
2022/12/09 02:58:51;;;;;;;43.90;17.20;;;;;;;8.51;100.00;100125.94;5072389;28;20093;-28
2022/12/09 03:01:54;;;;;;;44.35;17.83;;;;;;;8.67;100.00;100157.44;5090560;28;20286;-32
2022/12/09 03:04:23;;;;;;;45.03;18.50;;;;;;;8.59;100.00;100149.66;5090376;28;20076;-29
2022/12/09 03:06:53;;;;;;;47.50;17.58;;;;;;;8.54;100.00;100152.09;5071997;28;20028;-32
2022/12/09 03:09:32;;;;;;;42.05;19.33;;;;;;;8.68;100.00;100152.94;5072280;28;20067;-29
2022/12/09 03:12:05;;;;;;;38.53;17.17;;;;;;;8.71;100.00;100137.41;5090208;28;20032;-30
2022/12/09 03:14:36;;;;;;;44.83;15.60;;;;;;;8.60;100.00;100151.28;5090553;28;20159;-29
2022/12/09 03:17:12;;;;;;;43.05;17.60;;;;;;;8.49;100.00;100158.03;5090377;28;20073;-31
2022/12/09 03:19:43;;;;;;;39.80;17.40;;;;;;;8.56;100.00;100148.25;5090318;28;20016;-38
2022/12/09 03:22:17;;;;;;;42.15;16.90;;;;;;;8.49;100.00;100143.94;5090077;28;20040;-30
2022/12/09 03:24:42;;;;;;;37.28;16.63;;;;;;;8.50;100.00;100149.06;5090635;28;20028;-30
2022/12/09 03:27:11;;;;;;;41.40;17.15;;;;;;;8.40;100.00;100130.81;5090345;28;20039;-27
2022/12/09 03:29:41;;;;;;;109.15;46.45;;;;;;;8.42;100.00;100149.25;5090073;28;20032;-29
2022/12/09 03:32:10;;;;;;;53.63;22.17;;;;;;;8.39;100.00;100145.09;5090042;28;20115;-28
2022/12/09 03:34:41;;;;;;;41.10;17.55;;;;;;;8.57;100.00;100147.22;5071685;28;20463;-28
2022/12/09 03:37:08;;;;;;;38.67;17.00;;;;;;;8.61;100.00;100137.00;5090178;28;20028;-29
2022/12/09 03:39:37;;;;;;;42.72;17.30;;;;;;;8.55;100.00;100140.47;5090084;28;20532;-29
2022/12/09 03:42:08;;;;;;;41.83;18.55;;;;;;;8.60;100.00;100145.97;5089432;28;20028;-29
2022/12/09 03:44:36;;;;;;;39.78;16.83;;;;;;;8.59;100.00;100163.78;5089790;28;20032;-32
2022/12/09 03:47:06;;;;;;;42.63;17.02;;;;;;;8.67;100.00;100173.41;5071214;28;20020;-29
2022/12/09 03:49:32;;;;;;;46.28;17.90;;;;;;;8.57;100.00;100151.72;5071393;28;20495;-30
2022/12/09 03:52:25;;;;;;;39.40;17.90;;;;;;;8.91;100.00;100173.78;5089452;28;20028;-29
2022/12/09 03:54:58;;;;;;;47.85;19.10;;;;;;;8.62;100.00;100154.56;5071425;28;20086;-27
2022/12/09 03:57:25;;;;;;;41.72;17.70;;;;;;;8.71;100.00;100179.94;5089030;28;20392;-30
2022/12/09 03:59:54;;;;;;;38.03;18.00;;;;;;;8.69;100.00;100171.34;5089302;28;20036;-29
2022/12/09 04:02:20;;;;;;;43.88;19.05;;;;;;;8.70;100.00;100188.94;5088896;28;20028;-30
2022/12/09 04:04:46;;;;;;;42.65;18.98;;;;;;;8.68;100.00;100190.97;5089327;28;20067;-31
2022/12/09 04:07:11;;;;;;;49.15;18.23;;;;;;;8.45;100.00;100176.22;5089269;28;20055;-37
2022/12/09 04:09:37;;;;;;;41.55;17.70;;;;;;;8.63;100.00;100182.81;5089665;28;20020;-29
2022/12/09 04:12:02;;;;;;;44.53;17.25;;;;;;;8.56;100.00;100182.81;5089167;28;20032;-33
2022/12/09 04:14:28;;;;;;;40.05;17.95;;;;;;;8.51;100.00;100168.47;5089233;28;20024;-34
2022/12/09 04:16:53;;;;;;;42.63;18.15;;;;;;;8.51;100.00;100184.41;5089198;28;20129;-32
2022/12/09 04:19:19;;;;;;;38.72;16.85;;;;;;;8.71;100.00;100177.28;5089192;28;20028;-30
2022/12/09 04:21:44;;;;;;;41.85;17.35;;;;;;;8.69;100.00;100186.50;5089153;28;20035;-28
2022/12/09 04:24:10;;;;;;;43.95;19.27;;;;;;;8.78;100.00;100175.44;5088915;28;20024;-31
2022/12/09 04:26:35;;;;;;;38.13;16.45;;;;;;;8.66;100.00;100177.06;5089014;28;20030;-33
2022/12/09 04:29:00;;;;;;;40.33;17.70;;;;;;;8.62;100.00;100159.88;5089085;28;20484;-29
2022/12/09 04:31:26;;;;;;;36.65;16.08;;;;;;;8.69;100.00;100171.34;5088383;28;20034;-28
2022/12/09 04:33:51;;;;;;;38.60;16.73;;;;;;;8.71;100.00;100168.50;5088191;28;20479;-29
2022/12/09 04:36:19;;;;;;;38.72;16.05;;;;;;;8.72;100.00;100175.44;5088138;28;20557;-34
2022/12/09 04:38:45;;;;;;;35.40;17.33;;;;;;;8.50;100.00;100134.94;5088130;28;20407;-31
2022/12/09 04:41:11;;;;;;;38.45;16.70;;;;;;;8.61;100.00;100150.28;5087956;28;20120;-32
2022/12/09 04:43:37;;;;;;;36.13;16.98;;;;;;;8.59;100.00;100160.31;5069840;28;20017;-28
2022/12/09 04:46:05;;;;;;;41.58;20.70;;;;;;;8.67;100.00;100141.50;5087744;28;20035;-29
2022/12/09 04:48:31;;;;;;;96.20;32.55;;;;;;;8.54;100.00;100142.31;5088215;28;20065;-34
2022/12/09 04:50:58;;;;;;;42.15;17.23;;;;;;;8.40;100.00;100130.81;5069824;28;20557;-28
2022/12/09 04:53:24;;;;;;;35.75;15.45;;;;;;;8.61;100.00;100160.91;5069972;28;20024;-32
2022/12/09 04:55:57;;;;;;;33.30;14.80;;;;;;;8.59;100.00;100152.34;5069729;28;20040;-36
2022/12/09 04:58:22;;;;;;;35.25;16.00;;;;;;;8.60;100.00;100156.59;5088414;28;20118;-28
2022/12/09 05:00:47;;;;;;;36.22;14.15;;;;;;;8.57;100.00;100135.75;5087696;28;20110;-29
2022/12/09 05:03:13;;;;;;;36.30;14.27;;;;;;;8.68;100.00;100148.44;5085139;28;20024;-29
2022/12/09 05:05:39;;;;;;;33.03;14.32;;;;;;;8.82;100.00;100158.03;5069286;28;20038;-34
2022/12/09 05:08:05;;;;;;;37.42;15.88;;;;;;;8.68;100.00;100148.44;5087256;28;20032;-29
2022/12/09 05:10:31;;;;;;;34.63;13.90;;;;;;;8.79;100.00;100149.69;5068625;28;20036;-33
2022/12/09 05:12:56;;;;;;;32.15;14.65;;;;;;;8.71;100.00;100158.66;5087788;28;20024;-31
2022/12/09 05:15:22;;;;;;;34.75;14.60;;;;;;;8.60;100.00;100148.63;5069364;28;20041;-29
2022/12/09 05:17:47;;;;;;;29.20;12.93;;;;;;;8.67;100.00;100144.16;5087144;28;20047;-30
2022/12/09 05:20:12;;;;;;;37.15;13.57;;;;;;;8.87;100.00;100176.06;5087165;28;20384;-30
2022/12/09 05:22:38;;;;;;;31.17;13.07;;;;;;;8.63;100.00;100150.91;5087390;28;20031;-30
2022/12/09 05:25:04;;;;;;;39.85;22.45;;;;;;;8.76;100.00;100161.53;5086977;28;20050;-29
2022/12/09 05:27:29;;;;;;;34.42;16.33;;;;;;;8.87;100.00;100176.06;5087334;28;20123;-33
2022/12/09 05:29:54;;;;;;;31.88;11.95;;;;;;;8.67;100.00;100157.44;5087051;28;20749;-28
2022/12/09 05:32:20;;;;;;;31.83;13.07;;;;;;;8.74;100.00;100179.53;5087563;28;20482;-32
2022/12/09 05:34:45;;;;;;;34.13;13.30;;;;;;;8.67;100.00;100173.41;5069305;28;20077;-28
2022/12/09 05:37:14;;;;;;;35.45;13.48;;;;;;;8.77;100.00;100173.81;5087729;28;20491;-28
2022/12/09 05:39:40;;;;;;;33.42;13.00;;;;;;;8.71;100.00;100174.63;5087325;28;20058;-29
2022/12/09 05:42:06;;;;;;;36.10;13.70;;;;;;;8.65;100.00;100175.44;5087301;28;20036;-31
2022/12/09 05:44:31;;;;;;;33.63;14.05;;;;;;;8.61;100.00;100168.91;5069295;28;20024;-28
2022/12/09 05:46:57;;;;;;;33.35;14.35;;;;;;;8.70;100.00;100180.13;5087294;28;20097;-31
2022/12/09 05:49:22;;;;;;;31.42;13.57;;;;;;;8.69;100.00;100168.69;5087567;28;20084;-33
2022/12/09 05:51:48;;;;;;;34.25;14.32;;;;;;;8.59;100.00;100179.72;5087082;28;20024;-30
2022/12/09 05:54:13;;;;;;;36.67;13.13;;;;;;;8.69;100.00;100182.00;5087057;28;20408;-35
2022/12/09 05:56:38;;;;;;;35.10;13.88;;;;;;;8.82;100.00;100187.28;5069023;28;20064;-28
2022/12/09 05:59:04;;;;;;;37.47;18.10;;;;;;;8.90;100.00;100198.78;5087254;28;20103;-31
2022/12/09 06:01:30;;;;;;;35.88;14.60;;;;;;;8.88;100.00;100190.97;5087252;28;20101;-29
2022/12/09 06:03:55;;;;;;;34.35;14.38;;;;;;;8.79;100.00;100186.91;5086674;28;20396;-30
2022/12/09 06:06:25;;;;;;;37.35;14.02;;;;;;;8.62;100.00;100170.50;5068870;28;20027;-29
2022/12/09 06:08:55;;;;;;;32.88;13.20;;;;;;;8.69;100.00;100186.50;5086962;28;20028;-30
2022/12/09 06:11:20;;;;;;;34.65;13.65;;;;;;;8.89;100.00;100191.78;5069011;28;20053;-29
2022/12/09 06:13:46;;;;;;;38.60;12.77;;;;;;;8.77;100.00;100195.09;5086988;28;20465;-29
2022/12/09 06:16:13;;;;;;;33.17;15.75;;;;;;;8.73;100.00;100172.59;5068913;28;20035;-29
2022/12/09 06:18:38;;;;;;;35.63;14.77;;;;;;;8.64;100.00;100184.41;5086866;28;20063;-33
2022/12/09 06:21:08;;;;;;;46.10;23.88;;;;;;;8.70;100.00;100188.94;5086729;28;20028;-30
2022/12/09 06:23:35;;;;;;;34.85;15.63;;;;;;;8.36;100.00;100192.56;5068483;28;20032;-33
2022/12/09 06:26:01;;;;;;;46.42;23.33;;;;;;;8.34;100.00;100198.06;5086717;28;20116;-31
2022/12/09 06:28:27;;;;;;;70.43;29.48;;;;;;;8.57;100.00;100202.22;5087133;28;20107;-29
2022/12/09 06:30:52;;;;;;;58.08;25.15;;;;;;;8.56;100.00;100188.13;5086911;28;20028;-33
2022/12/09 06:33:17;;;;;;;52.78;22.55;;;;;;;8.70;100.00;100204.06;5086917;28;20036;-29
2022/12/09 06:35:43;;;;;;;31.55;13.63;;;;;;;8.78;100.00;100210.00;5086381;28;20028;-34
2022/12/09 06:38:08;;;;;;;31.10;13.75;;;;;;;8.85;100.00;100212.69;5086844;28;20070;-30
2022/12/09 06:40:34;;;;;;;33.38;13.40;;;;;;;8.81;100.00;100209.59;5086793;28;20028;-30
2022/12/09 06:42:59;;;;;;;30.83;13.00;;;;;;;8.74;100.00;100207.97;5068585;28;20032;-29
2022/12/09 06:45:25;;;;;;;32.45;12.63;;;;;;;8.90;100.00;100214.72;5068663;28;20474;-30
2022/12/09 06:47:50;;;;;;;33.80;12.48;;;;;;;8.80;100.00;100215.94;5086434;28;20488;-31
2022/12/09 06:50:16;;;;;;;33.50;14.38;;;;;;;8.93;100.00;100219.63;5086812;28;20024;-28
2022/12/09 06:52:41;;;;;;;31.33;12.88;;;;;;;8.98;100.00;100217.19;5068188;28;20719;-29
2022/12/09 06:55:08;;;;;;;31.83;13.95;;;;;;;8.89;100.00;100218.41;5086606;28;20028;-31
2022/12/09 06:57:34;;;;;;;28.58;13.25;;;;;;;8.78;100.00;100217.97;5067779;28;20427;-30
2022/12/09 07:00:00;;;;;;;30.55;13.18;;;;;;;8.72;100.00;100213.47;5086503;28;20040;-28
2022/12/09 07:02:26;;;;;;;32.55;12.68;;;;;;;8.82;100.00;100213.88;5068254;28;20066;-30
2022/12/09 07:04:55;;;;;;;31.70;12.60;;;;;;;8.97;100.00;100221.69;5068367;28;20047;-30
2022/12/09 07:07:20;;;;;;;31.50;13.90;;;;;;;8.69;100.00;100208.56;5068040;28;20031;-28
2022/12/09 07:09:46;;;;;;;31.80;13.23;;;;;;;8.72;100.00;100223.28;5068238;28;20389;-28
2022/12/09 07:12:11;;;;;;;38.88;15.32;;;;;;;8.31;100.00;100200.28;5086727;28;20035;-28
2022/12/09 07:14:37;;;;;;;38.53;15.02;;;;;;;8.57;100.00;100223.47;5086552;28;20032;-28
2022/12/09 07:17:03;;;;;;;37.35;15.23;;;;;;;8.58;100.00;100194.06;5086174;28;20063;-30
2022/12/09 07:19:29;;;;;;;34.65;12.70;;;;;;;8.77;100.00;100208.38;5086344;28;20133;-30
2022/12/09 07:21:54;;;;;;;32.42;13.00;;;;;;;8.94;100.00;100231.91;5067635;28;20785;-31
2022/12/09 07:24:20;;;;;;;40.00;17.52;;;;;;;8.98;100.00;100217.19;5068191;28;20028;-30
2022/12/09 07:26:45;;;;;;;33.72;13.95;;;;;;;8.99;100.00;100230.28;5086710;28;20148;-29
2022/12/09 07:29:11;;;;;;;38.20;13.60;;;;;;;9.11;100.00;100227.81;5086398;28;20077;-29
2022/12/09 07:31:36;;;;;;;29.85;12.02;;;;;;;9.17;100.00;100228.84;5086468;28;20035;-29
2022/12/09 07:34:03;;;;;;;34.35;13.73;;;;;;;8.92;100.00;100212.69;5071396;28;20031;-27
2022/12/09 07:36:31;;;;;;;32.58;13.63;;;;;;;8.68;100.00;100206.13;5055043;28;20068;-30
2022/12/09 07:39:01;;;;;;;33.45;15.75;;;;;;;8.69;100.00;100237.81;5071718;28;20088;-29
2022/12/09 07:41:27;;;;;;;30.60;14.25;;;;;;;8.72;100.00;100228.63;5089735;28;20036;-27
2022/12/09 07:43:53;;;;;;;81.35;35.58;;;;;;;8.98;100.00;100235.81;5089553;28;20109;-29
2022/12/09 07:46:20;;;;;;;39.75;18.35;;;;;;;8.94;100.00;100243.38;5071243;28;20039;-28
2022/12/09 07:48:46;;;;;;;32.80;13.77;;;;;;;8.88;100.00;100214.13;5090072;28;20115;-28
2022/12/09 07:51:12;;;;;;;30.70;12.73;;;;;;;9.03;100.00;100220.03;5071436;28;20414;-27
2022/12/09 07:53:38;;;;;;;31.77;13.95;;;;;;;9.00;100.00;100241.75;5089914;28;20028;-29
2022/12/09 07:56:13;;;;;;;30.08;13.10;;;;;;;8.99;100.00;100222.31;5089610;28;20035;-29
2022/12/09 07:58:39;;;;;;;41.38;19.92;;;;;;;9.04;100.00;100250.94;5089639;28;20039;-28
2022/12/09 08:01:10;;;;;;;36.67;13.70;;;;;;;9.13;100.00;100209.00;5089328;28;20499;-32
2022/12/09 08:03:37;;;;;;;44.67;20.85;;;;;;;9.19;100.00;100230.28;5089306;28;20028;-28
2022/12/09 08:06:02;;;;;;;37.83;14.95;;;;;;;9.08;100.00;100228.22;5070767;28;20028;-28
2022/12/09 08:08:28;;;;;;;32.58;15.35;;;;;;;9.01;100.00;100211.44;5089199;28;20039;-28
2022/12/09 08:10:53;;;;;;;32.42;13.38;;;;;;;9.01;100.00;100232.72;5070724;28;20077;-29
2022/12/09 08:13:19;;;;;;;38.92;16.02;;;;;;;9.10;100.00;100236.81;5089043;28;20123;-31
2022/12/09 08:15:46;;;;;;;34.53;15.70;;;;;;;8.85;100.00;100218.00;5070455;28;20043;-29
2022/12/09 08:18:11;;;;;;;45.53;18.52;;;;;;;9.04;100.00;100221.69;5070467;28;20055;-29
2022/12/09 08:20:36;;;;;;;35.25;14.55;;;;;;;9.10;100.00;100236.03;5088763;28;20023;-28
2022/12/09 08:23:02;;;;;;;54.00;32.58;;;;;;;9.22;100.00;100240.50;5070663;28;20051;-32
2022/12/09 08:25:27;;;;;;;36.10;17.25;;;;;;;9.13;100.00;100252.38;5088848;28;20039;-29
2022/12/09 08:27:53;;;;;;;47.53;17.48;;;;;;;9.27;100.00;100257.69;5070279;28;20111;-30
2022/12/09 08:30:18;;;;;;;45.15;26.13;;;;;;;9.17;100.00;100242.94;5088746;28;20024;-31
2022/12/09 08:32:44;;;;;;;129.20;94.75;;;;;;;9.28;100.00;100230.06;5089124;28;20089;-28
2022/12/09 08:35:13;;;;;;;45.40;27.05;;;;;;;9.29;100.00;100229.03;5088777;28;20024;-31
2022/12/09 08:37:40;;;;;;;98.93;54.97;;;;;;;9.58;98.55;100231.25;5088491;28;20035;-32
2022/12/09 08:40:06;;;;;;;62.50;41.80;;;;;;;9.40;100.00;100231.09;5069860;28;20016;-29
2022/12/09 08:42:31;;;;;;;383.38;271.55;;;;;;;9.55;99.92;100238.84;5087951;28;20567;-27
2022/12/09 08:44:57;;;;;;;41.33;21.75;;;;;;;9.56;99.78;100235.13;5087842;28;20027;-28
2022/12/09 08:47:22;;;;;;;34.78;16.88;;;;;;;9.54;98.76;100216.72;5088042;28;20148;-27
2022/12/09 08:49:48;;;;;;;31.20;12.80;;;;;;;9.59;98.46;100235.53;5088057;28;20369;-30
2022/12/09 08:52:13;;;;;;;32.92;16.20;;;;;;;9.62;98.05;100229.81;5052813;28;20028;-33
2022/12/09 08:54:38;;;;;;;29.70;13.07;;;;;;;9.56;98.55;100211.16;5087711;28;20035;-28
2022/12/09 08:57:04;;;;;;;28.63;13.85;;;;;;;9.54;98.26;100219.38;5087825;28;20028;-30
2022/12/09 08:59:29;;;;;;;31.52;13.25;;;;;;;9.35;99.01;100202.41;5087885;28;20032;-28
2022/12/09 09:01:55;;;;;;;28.27;14.18;;;;;;;9.48;99.21;100216.72;5087636;28;20556;-31
2022/12/09 09:04:21;;;;;;;37.05;15.48;;;;;;;9.58;99.47;100207.28;5087809;28;20024;-29
2022/12/09 09:06:48;;;;;;;42.60;18.80;;;;;;;9.75;99.50;100206.84;5069447;28;20128;-30
2022/12/09 09:09:14;;;;;;;40.22;19.08;;;;;;;9.56;99.60;100198.69;5069304;28;20035;-28
2022/12/09 09:11:40;;;;;;;173.88;82.43;;;;;;;9.85;99.38;100197.38;5087738;28;20111;-26
2022/12/09 09:14:08;;;;;;;89.28;37.35;;;;;;;9.73;98.39;100192.91;5069417;28;20028;-27
2022/12/09 09:16:34;;;;;;;35.05;15.88;;;;;;;9.41;97.87;100184.78;5069570;28;20123;-30
2022/12/09 09:19:01;;;;;;;38.17;14.90;;;;;;;9.15;100.00;100175.81;5069431;28;20139;-30
2022/12/09 09:21:27;;;;;;;47.42;19.10;;;;;;;9.53;100.00;100199.09;5088222;28;20046;-28
2022/12/09 09:23:53;;;;;;;50.80;28.20;;;;;;;9.71;99.38;100194.97;5068826;28;20032;-27
2022/12/09 09:26:22;;;;;;;43.55;22.48;;;;;;;9.38;99.14;100175.41;5069086;28;20035;-30
2022/12/09 09:28:48;;;;;;;522.25;263.08;;;;;;;9.32;99.25;100180.75;5068590;28;20031;-31
2022/12/09 09:31:16;;;;;;;67.28;32.55;;;;;;;9.59;98.59;100192.94;5068837;28;20032;-27
2022/12/09 09:33:42;;;;;;;208.50;101.75;;;;;;;9.61;98.40;100185.56;5068441;28;20024;-31
2022/12/09 09:36:13;;;;;;;172.45;91.68;;;;;;;9.61;98.72;100193.56;5086932;28;20046;-34
2022/12/09 09:38:38;;;;;;;36.47;16.92;;;;;;;9.49;98.84;100163.28;5066089;28;20028;-29
2022/12/09 09:41:36;;;;;;;36.10;16.10;;;;;;;9.50;99.51;100180.91;5068415;28;20058;-27
2022/12/09 09:44:02;;;;;;;40.95;16.58;;;;;;;9.41;100.00;100163.50;5084636;28;20039;-28
2022/12/09 09:46:39;;;;;;;38.60;16.40;;;;;;;9.47;100.00;100167.19;5086783;28;20035;-28
2022/12/09 09:49:10;;;;;;;31.63;13.25;;;;;;;9.50;99.74;100148.13;5066833;28;20031;-29
2022/12/09 09:51:36;;;;;;;32.42;14.65;;;;;;;9.45;99.77;100170.84;5068406;28;20036;-29
2022/12/09 09:54:02;;;;;;;29.85;12.82;;;;;;;9.39;100.00;100133.63;5086916;28;20055;-27
2022/12/09 09:56:33;;;;;;;53.20;20.27;;;;;;;9.50;100.00;100150.78;5086403;28;20051;-29
2022/12/09 09:59:15;;;;;;;84.97;42.53;;;;;;;9.45;100.00;100149.56;5065794;28;20032;-31
2022/12/09 10:01:48;;;;;;;51.17;26.38;;;;;;;9.60;99.46;100143.16;5065835;28;20060;-36
2022/12/09 10:04:32;;;;;;;54.42;30.65;;;;;;;9.58;99.69;100154.06;5068588;28;20024;-27
2022/12/09 10:07:06;;;;;;;41.28;17.83;;;;;;;9.65;99.72;100149.50;5069025;28;20115;-29
2022/12/09 10:09:38;;;;;;;31.40;14.05;;;;;;;9.56;99.16;100128.63;5086989;28;20111;-29
2022/12/09 10:12:23;;;;;;;38.53;16.13;;;;;;;9.72;99.96;100143.34;5086894;28;20089;-29
2022/12/09 10:14:57;;;;;;;34.75;14.98;;;;;;;9.71;99.39;100147.03;5068785;28;20850;-28
2022/12/09 10:17:46;;;;;;;38.45;15.10;;;;;;;9.74;98.30;100135.94;5068404;28;20052;-29
2022/12/09 10:20:16;;;;;;;36.08;15.93;;;;;;;9.69;98.50;100112.63;5068254;28;20036;-30
2022/12/09 10:23:00;;;;;;;37.50;15.10;;;;;;;9.69;99.58;100138.44;5086564;28;20032;-32
2022/12/09 10:25:29;;;;;;;34.88;14.60;;;;;;;9.70;100.00;100132.06;5068691;28;20030;-27
2022/12/09 10:28:05;;;;;;;30.17;13.52;;;;;;;9.77;98.65;100123.03;5086484;28;20028;-27
2022/12/09 10:30:31;;;;;;;42.00;19.48;;;;;;;9.76;98.75;100112.59;5086684;28;20048;-28
2022/12/09 10:32:57;;;;;;;39.15;15.35;;;;;;;9.83;98.96;100110.72;5086727;28;20067;-28
2022/12/09 10:35:28;;;;;;;30.88;14.88;;;;;;;9.94;97.42;100082.59;5086845;28;20024;-30
2022/12/09 10:38:03;;;;;;;33.63;15.05;;;;;;;9.63;99.02;100086.84;5086696;28;20093;-29
2022/12/09 10:40:37;;;;;;;30.75;15.18;;;;;;;9.85;98.42;100111.31;5053041;28;20543;-28
2022/12/09 10:46:07;;;;;;;42.55;16.17;;;;;;;9.74;99.94;100098.66;5086135;28;20052;-28
2022/12/09 10:48:46;;;;;;;37.35;16.15;;;;;;;9.79;98.14;100061.56;5068409;28;20032;-29
2022/12/09 10:51:16;;;;;;;48.30;23.33;;;;;;;10.04;96.81;100062.44;5086700;28;20039;-35
2022/12/09 10:53:55;;;;;;;43.42;20.70;;;;;;;10.00;97.52;100061.22;5067898;28;20156;-33
2022/12/09 10:56:33;;;;;;;47.10;23.60;;;;;;;9.88;98.49;100062.94;5086553;28;20024;-29
2022/12/09 10:59:07;;;;;;;38.60;18.60;;;;;;;9.85;97.76;100031.41;5086543;28;20028;-31
2022/12/09 11:02:00;;;;;;;188.05;102.15;;;;;;;9.92;98.14;100040.16;5086164;28;20051;-29
2022/12/09 11:04:31;;;;;;;45.55;21.75;;;;;;;9.68;99.15;100024.94;5068103;28;20488;-29
2022/12/09 11:07:01;;;;;;;46.22;20.10;;;;;;;9.52;100.00;100018.28;5086970;28;20024;-30
2022/12/09 11:09:36;;;;;;;86.00;51.88;;;;;;;9.87;98.85;100029.34;5090452;28;20063;-29
2022/12/09 11:12:04;;;;;;;45.47;25.35;;;;;;;9.81;99.39;100027.56;5090217;28;20070;-28
2022/12/09 11:14:34;;;;;;;42.42;19.02;;;;;;;9.70;99.39;100017.56;5090253;28;20031;-28
2022/12/09 11:17:21;;;;;;;50.38;29.75;;;;;;;9.64;99.41;100001.44;5089965;28;20582;-29
2022/12/09 11:20:08;;;;;;;57.50;30.33;;;;;;;9.59;100.00;100000.44;5071600;28;20492;-29